createdAt,value
2017-12-10T00:00:01.566Z,71.85
2017-12-10T00:01:01.575Z,72.04
2017-12-10T00:02:01.849Z,71.85
2017-12-10T00:03:01.596Z,71.95
2017-12-10T00:04:01.605Z,71.57
2017-12-10T00:05:01.615Z,71
2017-12-10T00:06:01.891Z,71.28
2017-12-10T00:07:01.900Z,71.19
2017-12-10T00:08:01.645Z,71.38
2017-12-10T00:09:01.921Z,71.38
2017-12-10T00:10:01.665Z,71.19
2017-12-10T00:11:01.678Z,71.19
2017-12-10T00:12:01.686Z,71.38
2017-12-10T00:13:01.963Z,71
2017-12-10T00:14:02.007Z,71.28
2017-12-10T00:15:01.714Z,71.57
2017-12-10T00:16:01.727Z,72.04
2017-12-10T00:17:01.737Z,72.04
2017-12-10T00:18:01.750Z,71.85
2017-12-10T00:19:01.755Z,71.57
2017-12-10T00:20:01.764Z,72.42
2017-12-10T00:21:02.056Z,72.14
2017-12-10T00:22:01.785Z,72.33
2017-12-10T00:23:02.063Z,71.95
2017-12-10T00:24:02.074Z,72.04
2017-12-10T00:25:02.081Z,71.95
2017-12-10T00:26:02.089Z,71.85
2017-12-10T00:27:02.156Z,72.52
2017-12-10T00:28:02.109Z,72.42
2017-12-10T00:29:02.121Z,72.33
2017-12-10T00:30:02.138Z,72.23
2017-12-10T00:31:02.141Z,72.04
2017-12-10T00:32:02.153Z,71.85
2017-12-10T00:33:02.159Z,71.28
2017-12-10T00:34:02.171Z,70.81
2017-12-10T00:35:02.181Z,70.81
2017-12-10T00:36:02.193Z,70.9
2017-12-10T00:37:02.199Z,70.9
2017-12-10T00:38:02.215Z,70.43
2017-12-10T00:39:02.219Z,70.05
2017-12-10T00:40:02.230Z,70.15
2017-12-10T00:41:02.238Z,70.15
2017-12-10T00:42:02.250Z,70.24
2017-12-10T00:43:02.262Z,69.86
2017-12-10T00:44:02.274Z,69.57
2017-12-10T00:45:02.282Z,69.67
2017-12-10T00:46:02.291Z,69.38
2017-12-10T00:47:02.300Z,69.67
2017-12-10T00:48:02.312Z,69.67
2017-12-10T00:49:02.317Z,69.45
2017-12-10T00:50:02.327Z,69.82
2017-12-10T00:51:02.340Z,69.92
2017-12-10T00:52:02.081Z,69.92
2017-12-10T00:53:02.362Z,69.82
2017-12-10T00:54:02.366Z,70.11
2017-12-10T00:55:02.377Z,70.01
2017-12-10T00:56:02.389Z,70.01
2017-12-10T00:57:02.130Z,70.2
2017-12-10T00:58:02.141Z,70.3
2017-12-10T00:59:02.415Z,70.58
2017-12-10T01:00:02.430Z,70.34
2017-12-10T01:01:02.436Z,70.78
2017-12-10T01:02:02.446Z,70.78
2017-12-10T01:03:02.461Z,70.72
2017-12-10T01:04:02.464Z,70.3
2017-12-10T01:05:02.483Z,70.97
2017-12-10T01:06:02.220Z,70.97
2017-12-10T01:07:02.493Z,70.49
2017-12-10T01:08:02.249Z,70.49
2017-12-10T01:09:02.513Z,71
2017-12-10T01:10:02.524Z,70.39
2017-12-10T01:11:02.532Z,70.39
2017-12-10T01:12:02.549Z,70.34
2017-12-10T01:13:02.552Z,70.39
2017-12-10T01:14:02.566Z,70.87
2017-12-10T01:15:02.307Z,70.97
2017-12-10T01:16:02.587Z,70.39
2017-12-10T01:17:02.593Z,70.58
2017-12-10T01:18:02.605Z,70.39
2017-12-10T01:19:02.612Z,70.53
2017-12-10T01:20:02.619Z,70.49
2017-12-10T01:21:02.634Z,70.39
2017-12-10T01:22:02.660Z,70.39
2017-12-10T01:23:02.388Z,70.49
2017-12-10T01:24:02.661Z,70.2
2017-12-10T01:25:02.667Z,70.01
2017-12-10T01:26:02.685Z,70.2
2017-12-10T01:27:02.691Z,70.3
2017-12-10T01:28:02.706Z,70.11
2017-12-10T01:29:02.710Z,69.82
2017-12-10T01:30:02.461Z,69.54
2017-12-10T01:31:02.726Z,70.01
2017-12-10T01:32:02.738Z,70.11
2017-12-10T01:33:02.742Z,70.01
2017-12-10T01:34:02.753Z,70.3
2017-12-10T01:35:02.765Z,70.11
2017-12-10T01:36:02.557Z,70.3
2017-12-10T01:37:02.785Z,70.3
2017-12-10T01:38:02.795Z,70.3
2017-12-10T01:39:02.537Z,70.39
2017-12-10T01:40:02.546Z,70.39
2017-12-10T01:41:02.557Z,70.2
2017-12-10T01:42:02.831Z,70.39
2017-12-10T01:43:02.577Z,70.11
2017-12-10T01:44:02.890Z,69.73
2017-12-10T01:45:02.594Z,69.64
2017-12-10T01:46:02.875Z,70.01
2017-12-10T01:47:02.899Z,69.82
2017-12-10T01:48:02.889Z,70.2
2017-12-10T01:49:02.904Z,70.49
2017-12-10T01:50:02.664Z,70.2
2017-12-10T01:51:02.919Z,70.3
2017-12-10T01:52:02.683Z,70.3
2017-12-10T01:53:02.938Z,70.3
2017-12-10T01:54:02.962Z,70.11
2017-12-10T01:55:02.954Z,70.39
2017-12-10T01:56:02.966Z,69.82
2017-12-10T01:57:02.710Z,69.92
2017-12-10T01:58:02.744Z,70.2
2017-12-10T01:59:02.991Z,70.49
2017-12-10T02:00:02.780Z,70.2
2017-12-10T02:01:03.019Z,70.49
2017-12-10T02:02:03.038Z,70.39
2017-12-10T02:03:02.767Z,70.87
2017-12-10T02:04:03.046Z,70.97
2017-12-10T02:05:02.791Z,70.87
2017-12-10T02:06:02.812Z,70.87
2017-12-10T02:07:02.808Z,70.87
2017-12-10T02:08:03.098Z,71.25
2017-12-10T02:09:03.088Z,70.97
2017-12-10T02:10:03.232Z,71.25
2017-12-10T02:11:03.117Z,71.34
2017-12-10T02:12:03.121Z,71.44
2017-12-10T02:13:03.131Z,71.44
2017-12-10T02:14:03.150Z,71.76
2017-12-10T02:15:03.156Z,71.34
2017-12-10T02:16:02.918Z,71.53
2017-12-10T02:17:02.904Z,71.34
2017-12-10T02:18:02.914Z,70.78
2017-12-10T02:19:03.191Z,71.25
2017-12-10T02:20:03.219Z,71.44
2017-12-10T02:21:02.954Z,71.15
2017-12-10T02:22:03.232Z,71.25
2017-12-10T02:23:03.282Z,71.62
2017-12-10T02:24:03.236Z,71.44
2017-12-10T02:25:03.244Z,71.72
2017-12-10T02:26:03.260Z,72.1
2017-12-10T02:27:03.262Z,71.62
2017-12-10T02:28:03.279Z,71.81
2017-12-10T02:29:03.020Z,71.81
2017-12-10T02:30:03.045Z,71.81
2017-12-10T02:31:17.927Z,72.1
2017-12-10T02:32:03.050Z,71.91
2017-12-10T02:33:03.056Z,71.62
2017-12-10T02:34:03.066Z,71.81
2017-12-10T02:35:03.346Z,72.19
2017-12-10T02:36:03.364Z,72.19
2017-12-10T02:37:03.366Z,72.48
2017-12-10T02:38:03.380Z,72
2017-12-10T02:39:03.383Z,71.53
2017-12-10T02:40:03.136Z,71.81
2017-12-10T02:41:03.394Z,72.19
2017-12-10T02:42:03.413Z,72.29
2017-12-10T02:43:03.424Z,72
2017-12-10T02:44:03.451Z,72.14
2017-12-10T02:45:03.434Z,72
2017-12-10T02:46:03.466Z,72.77
2017-12-10T02:47:03.454Z,72.38
2017-12-10T02:48:03.204Z,72.52
2017-12-10T02:49:03.476Z,72.71
2017-12-10T02:50:03.491Z,72.61
2017-12-10T02:51:03.233Z,72.8
2017-12-10T02:52:03.521Z,72.67
2017-12-10T02:53:03.516Z,72.71
2017-12-10T02:54:03.530Z,72.8
2017-12-10T02:55:03.534Z,72.52
2017-12-10T02:56:03.544Z,72.8
2017-12-10T02:57:03.552Z,72.42
2017-12-10T02:58:03.621Z,72.52
2017-12-10T02:59:03.567Z,72.42
2017-12-10T03:00:03.591Z,72.33
2017-12-10T03:01:03.323Z,72.42
2017-12-10T03:02:03.604Z,72.52
2017-12-10T03:03:03.345Z,72.61
2017-12-10T03:04:03.623Z,72.23
2017-12-10T03:05:03.630Z,72.33
2017-12-10T03:06:03.389Z,72.33
2017-12-10T03:07:03.656Z,72.48
2017-12-10T03:08:03.664Z,72.99
2017-12-10T03:09:03.668Z,73.56
2017-12-10T03:10:03.674Z,73.37
2017-12-10T03:11:03.848Z,73.37
2017-12-10T03:12:03.493Z,73.46
2017-12-10T03:13:03.704Z,73.37
2017-12-10T03:14:03.724Z,73.46
2017-12-10T03:15:03.461Z,72.89
2017-12-10T03:16:03.740Z,72.71
2017-12-10T03:17:03.743Z,72.52
2017-12-10T03:18:03.759Z,72.42
2017-12-10T03:19:03.759Z,72.89
2017-12-10T03:20:03.769Z,73.27
2017-12-10T03:21:03.857Z,72.71
2017-12-10T03:22:03.800Z,72.61
2017-12-10T03:23:03.535Z,72.8
2017-12-10T03:24:03.809Z,73.46
2017-12-10T03:25:03.821Z,72.89
2017-12-10T03:26:03.832Z,72.8
2017-12-10T03:27:03.845Z,72.8
2017-12-10T03:28:03.863Z,72.8
2017-12-10T03:29:03.860Z,72.89
2017-12-10T03:30:03.615Z,72.71
2017-12-10T03:31:03.898Z,72.99
2017-12-10T03:32:03.888Z,72.42
2017-12-10T03:33:03.899Z,72.61
2017-12-10T03:34:03.904Z,72.52
2017-12-10T03:35:03.917Z,72.61
2017-12-10T03:36:03.943Z,72.67
2017-12-10T03:37:03.936Z,72.52
2017-12-10T03:38:03.950Z,72.61
2017-12-10T03:39:03.954Z,72.57
2017-12-10T03:40:03.706Z,72.61
2017-12-10T03:41:03.977Z,72.61
2017-12-10T03:42:03.722Z,72.61
2017-12-10T03:43:03.994Z,72.52
2017-12-10T03:44:04.014Z,72.71
2017-12-10T03:45:04.022Z,72.8
2017-12-10T03:46:04.028Z,72.71
2017-12-10T03:47:04.036Z,72.89
2017-12-10T03:48:04.039Z,73.56
2017-12-10T03:49:04.050Z,72.89
2017-12-10T03:50:04.061Z,72.57
2017-12-10T03:51:04.076Z,72.8
2017-12-10T03:52:04.091Z,73.43
2017-12-10T03:53:04.089Z,72.77
2017-12-10T03:54:04.103Z,72.99
2017-12-10T03:55:04.117Z,72.8
2017-12-10T03:56:03.852Z,72.8
2017-12-10T03:57:04.129Z,72.71
2017-12-10T03:58:04.144Z,73.37
2017-12-10T03:59:04.150Z,73.08
2017-12-10T04:00:04.164Z,72.89
2017-12-10T04:01:04.172Z,72.86
2017-12-10T04:02:04.178Z,73.27
2017-12-10T04:03:04.185Z,73.37
2017-12-10T04:04:04.195Z,73.46
2017-12-10T04:05:04.207Z,73.46
2017-12-10T04:06:04.215Z,72.71
2017-12-10T04:07:04.239Z,72.71
2017-12-10T04:08:04.237Z,73.46
2017-12-10T04:09:04.244Z,73.24
2017-12-10T04:10:03.990Z,73.37
2017-12-10T04:11:04.261Z,73.37
2017-12-10T04:12:04.274Z,72.89
2017-12-10T04:13:04.295Z,73.27
2017-12-10T04:14:04.291Z,73.18
2017-12-10T04:15:04.308Z,73.37
2017-12-10T04:16:04.048Z,72.99
2017-12-10T04:17:04.329Z,73.18
2017-12-10T04:18:04.331Z,73.27
2017-12-10T04:19:04.079Z,72.71
2017-12-10T04:20:04.088Z,72.8
2017-12-10T04:21:04.366Z,72.77
2017-12-10T04:22:04.385Z,72.52
2017-12-10T04:23:04.117Z,72.77
2017-12-10T04:24:04.396Z,73.46
2017-12-10T04:25:04.397Z,72.57
2017-12-10T04:26:04.144Z,72.71
2017-12-10T04:27:04.433Z,72.61
2017-12-10T04:28:04.428Z,73.08
2017-12-10T04:29:04.440Z,72.8
2017-12-10T04:30:04.530Z,73.18
2017-12-10T04:31:04.462Z,73.37
2017-12-10T04:32:04.468Z,73.27
2017-12-10T04:33:04.475Z,72.96
2017-12-10T04:34:04.493Z,72.89
2017-12-10T04:35:04.494Z,73.24
2017-12-10T04:36:04.241Z,73.37
2017-12-10T04:37:04.570Z,72.86
2017-12-10T04:38:04.522Z,72.71
2017-12-10T04:39:04.535Z,72.99
2017-12-10T04:40:04.547Z,73.46
2017-12-10T04:41:04.288Z,72.71
2017-12-10T04:42:04.563Z,72.61
2017-12-10T04:43:04.569Z,73.24
2017-12-10T04:44:04.582Z,73.27
2017-12-10T04:45:04.595Z,73.24
2017-12-10T04:46:04.608Z,73.05
2017-12-10T04:47:04.348Z,72.96
2017-12-10T04:48:04.626Z,72.89
2017-12-10T04:49:04.366Z,72.99
2017-12-10T04:50:04.644Z,73.08
2017-12-10T04:51:04.651Z,73.27
2017-12-10T04:52:04.659Z,73.18
2017-12-10T04:53:04.669Z,73.18
2017-12-10T04:54:04.677Z,72.71
2017-12-10T04:55:04.689Z,73.27
2017-12-10T04:56:04.434Z,73.18
2017-12-10T04:57:04.490Z,73.18
2017-12-10T04:58:04.717Z,72.99
2017-12-10T04:59:04.730Z,72.61
2017-12-10T05:00:04.741Z,72.99
2017-12-10T05:01:04.751Z,73.08
2017-12-10T05:02:04.757Z,72.8
2017-12-10T05:03:04.501Z,72.71
2017-12-10T05:04:04.508Z,72.96
2017-12-10T05:05:04.782Z,73.18
2017-12-10T05:06:04.540Z,73.08
2017-12-10T05:07:04.803Z,73.46
2017-12-10T05:08:04.813Z,72.99
2017-12-10T05:09:04.824Z,72.71
2017-12-10T05:10:04.832Z,73.37
2017-12-10T05:11:04.846Z,72.71
2017-12-10T05:12:04.855Z,73.08
2017-12-10T05:13:04.596Z,72.99
2017-12-10T05:14:04.872Z,72.42
2017-12-10T05:15:04.939Z,72.61
2017-12-10T05:16:04.888Z,72.99
2017-12-10T05:17:04.642Z,72.8
2017-12-10T05:18:04.911Z,72.52
2017-12-10T05:19:04.919Z,72.89
2017-12-10T05:20:04.928Z,73.56
2017-12-10T05:21:04.955Z,72.77
2017-12-10T05:22:04.948Z,72.89
2017-12-10T05:23:04.958Z,72.29
2017-12-10T05:24:04.968Z,72.38
2017-12-10T05:25:04.978Z,72.67
2017-12-10T05:26:04.989Z,72.57
2017-12-10T05:27:05.000Z,72.48
2017-12-10T05:28:05.006Z,72.77
2017-12-10T05:29:04.818Z,72.48
2017-12-10T05:30:05.028Z,72.67
2017-12-10T05:31:05.032Z,72.77
2017-12-10T05:32:05.054Z,72.67
2017-12-10T05:33:05.057Z,72.77
2017-12-10T05:34:04.798Z,72.77
2017-12-10T05:35:05.074Z,72.67
2017-12-10T05:36:05.081Z,72.57
2017-12-10T05:37:05.096Z,72.67
2017-12-10T05:38:05.101Z,72.67
2017-12-10T05:39:05.115Z,72.67
2017-12-10T05:40:05.122Z,72.48
2017-12-10T05:41:04.870Z,72.48
2017-12-10T05:42:05.142Z,72.57
2017-12-10T05:43:05.149Z,72.67
2017-12-10T05:44:05.165Z,72.57
2017-12-10T05:45:05.168Z,72.48
2017-12-10T05:46:05.178Z,72.48
2017-12-10T05:47:05.190Z,72.57
2017-12-10T05:48:05.203Z,72.57
2017-12-10T05:49:04.943Z,73.14
2017-12-10T05:50:05.224Z,72.67
2017-12-10T05:51:05.227Z,73.24
2017-12-10T05:52:05.238Z,73.05
2017-12-10T05:53:05.244Z,73.24
2017-12-10T05:54:05.257Z,73.05
2017-12-10T05:55:05.265Z,73.24
2017-12-10T05:56:05.276Z,72.77
2017-12-10T05:57:05.282Z,73.14
2017-12-10T05:58:05.292Z,73.05
2017-12-10T05:59:05.306Z,72.96
2017-12-10T06:00:05.313Z,73.14
2017-12-10T06:01:05.320Z,72.86
2017-12-10T06:02:05.334Z,73.33
2017-12-10T06:03:05.350Z,73.14
2017-12-10T06:04:05.094Z,73.43
2017-12-10T06:05:05.415Z,73.8
2017-12-10T06:06:05.374Z,73.33
2017-12-10T06:07:05.116Z,73.33
2017-12-10T06:08:05.393Z,73.33
2017-12-10T06:09:05.403Z,73.43
2017-12-10T06:10:05.150Z,73.14
2017-12-10T06:11:05.416Z,73.24
2017-12-10T06:12:05.425Z,73.43
2017-12-10T06:13:05.441Z,73.24
2017-12-10T06:14:05.454Z,73.52
2017-12-10T06:15:05.192Z,73.52
2017-12-10T06:16:05.468Z,72.77
2017-12-10T06:17:05.474Z,73.24
2017-12-10T06:18:05.492Z,72.67
2017-12-10T06:19:05.234Z,73.05
2017-12-10T06:20:05.509Z,72.67
2017-12-10T06:21:05.513Z,73.14
2017-12-10T06:22:05.522Z,72.67
2017-12-10T06:23:05.538Z,73.33
2017-12-10T06:24:05.543Z,73.14
2017-12-10T06:25:05.551Z,73.33
2017-12-10T06:26:05.563Z,73.24
2017-12-10T06:27:05.310Z,72.67
2017-12-10T06:28:05.584Z,73.52
2017-12-10T06:29:05.599Z,72.57
2017-12-10T06:30:05.597Z,72.77
2017-12-10T06:31:05.346Z,73.14
2017-12-10T06:32:05.358Z,72.96
2017-12-10T06:33:05.627Z,73.33
2017-12-10T06:34:05.639Z,72.48
2017-12-10T06:35:05.687Z,72.86
2017-12-10T06:36:05.659Z,72.57
2017-12-10T06:37:05.750Z,73.14
2017-12-10T06:38:05.674Z,73.52
2017-12-10T06:39:05.695Z,73.52
2017-12-10T06:40:05.697Z,73.43
2017-12-10T06:41:05.702Z,73.24
2017-12-10T06:42:05.972Z,73.14
2017-12-10T06:43:05.725Z,73.14
2017-12-10T06:44:05.730Z,73.14
2017-12-10T06:45:05.749Z,73.24
2017-12-10T06:46:05.752Z,72.86
2017-12-10T06:47:05.495Z,73.43
2017-12-10T06:48:05.781Z,73.14
2017-12-10T06:49:05.514Z,73.43
2017-12-10T06:50:05.528Z,73.52
2017-12-10T06:51:05.536Z,73.61
2017-12-10T06:52:05.815Z,73.33
2017-12-10T06:53:05.562Z,73.43
2017-12-10T06:54:05.826Z,73.43
2017-12-10T06:55:05.848Z,73.33
2017-12-10T06:56:05.850Z,73.61
2017-12-10T06:57:05.590Z,73.9
2017-12-10T06:58:05.867Z,74.09
2017-12-10T06:59:05.877Z,73.71
2017-12-10T07:00:05.620Z,73.9
2017-12-10T07:01:05.899Z,73.71
2017-12-10T07:02:05.906Z,73.99
2017-12-10T07:03:05.922Z,73.71
2017-12-10T07:04:05.927Z,73.8
2017-12-10T07:05:05.937Z,74.28
2017-12-10T07:06:05.982Z,73.99
2017-12-10T07:07:05.954Z,73.8
2017-12-10T07:08:05.696Z,73.99
2017-12-10T07:09:05.972Z,73.8
2017-12-10T07:10:05.990Z,73.9
2017-12-10T07:11:05.991Z,73.8
2017-12-10T07:12:05.735Z,73.8
2017-12-10T07:13:06.010Z,73.8
2017-12-10T07:14:06.025Z,73.8
2017-12-10T07:15:06.032Z,73.99
2017-12-10T07:16:06.039Z,73.99
2017-12-10T07:17:06.049Z,74.09
2017-12-10T07:18:06.069Z,73.8
2017-12-10T07:19:06.076Z,73.8
2017-12-10T07:20:06.081Z,74.09
2017-12-10T07:21:05.818Z,74.09
2017-12-10T07:22:05.864Z,74.09
2017-12-10T07:23:06.110Z,73.9
2017-12-10T07:24:06.116Z,73.8
2017-12-10T07:25:06.128Z,73.99
2017-12-10T07:26:06.132Z,73.71
2017-12-10T07:27:05.907Z,73.9
2017-12-10T07:28:06.213Z,74.09
2017-12-10T07:29:06.163Z,73.61
2017-12-10T07:30:06.183Z,73.71
2017-12-10T07:31:05.929Z,73.56
2017-12-10T07:32:06.192Z,73.52
2017-12-10T07:33:06.199Z,73.65
2017-12-10T07:34:05.945Z,73.9
2017-12-10T07:35:06.252Z,73.65
2017-12-10T07:36:05.961Z,73.84
2017-12-10T07:37:05.971Z,74.13
2017-12-10T07:38:06.272Z,73.84
2017-12-10T07:39:05.999Z,73.94
2017-12-10T07:40:06.001Z,73.94
2017-12-10T07:41:06.279Z,73.84
2017-12-10T07:42:06.318Z,73.94
2017-12-10T07:43:06.062Z,73.94
2017-12-10T07:44:06.316Z,73.84
2017-12-10T07:45:06.317Z,73.75
2017-12-10T07:46:06.331Z,74.03
2017-12-10T07:47:06.350Z,74.22
2017-12-10T07:48:06.351Z,74.13
2017-12-10T07:49:06.356Z,73.84
2017-12-10T07:50:06.362Z,73.94
2017-12-10T07:51:06.372Z,73.94
2017-12-10T07:52:06.391Z,74.13
2017-12-10T07:53:06.391Z,73.84
2017-12-10T07:54:06.406Z,73.84
2017-12-10T07:55:06.409Z,73.94
2017-12-10T07:56:06.429Z,73.84
2017-12-10T07:57:06.431Z,73.94
2017-12-10T07:58:06.446Z,73.84
2017-12-10T07:59:06.450Z,73.84
2017-12-10T08:00:06.460Z,73.94
2017-12-10T08:01:06.471Z,73.75
2017-12-10T08:02:06.217Z,73.75
2017-12-10T08:03:06.489Z,73.56
2017-12-10T08:04:06.501Z,73.18
2017-12-10T08:05:06.509Z,73.46
2017-12-10T08:06:06.521Z,73.37
2017-12-10T08:07:06.268Z,73.27
2017-12-10T08:08:06.780Z,73.37
2017-12-10T08:09:06.548Z,73.46
2017-12-10T08:10:06.293Z,73.56
2017-12-10T08:11:06.572Z,73.37
2017-12-10T08:12:06.599Z,73.37
2017-12-10T08:13:06.588Z,73.84
2017-12-10T08:14:06.599Z,73.46
2017-12-10T08:15:06.610Z,73.94
2017-12-10T08:16:06.617Z,73.75
2017-12-10T08:17:06.625Z,73.27
2017-12-10T08:18:06.658Z,73.65
2017-12-10T08:19:06.653Z,73.37
2017-12-10T08:20:06.388Z,73.18
2017-12-10T08:21:06.661Z,73.56
2017-12-10T08:22:06.674Z,73.75
2017-12-10T08:23:06.418Z,73.65
2017-12-10T08:24:06.698Z,73.37
2017-12-10T08:25:06.714Z,73.46
2017-12-10T08:26:06.448Z,73.37
2017-12-10T08:27:06.722Z,73.27
2017-12-10T08:28:06.469Z,73.37
2017-12-10T08:29:06.745Z,73.56
2017-12-10T08:30:06.756Z,73.65
2017-12-10T08:31:06.763Z,73.65
2017-12-10T08:32:06.507Z,72.89
2017-12-10T08:33:06.788Z,73.37
2017-12-10T08:34:06.794Z,72.61
2017-12-10T08:35:06.537Z,73.18
2017-12-10T08:36:06.813Z,72.8
2017-12-10T08:37:06.855Z,72.71
2017-12-10T08:38:06.841Z,72.61
2017-12-10T08:39:06.575Z,73.37
2017-12-10T08:40:06.850Z,73.37
2017-12-10T08:41:06.887Z,73.46
2017-12-10T08:42:06.874Z,73.65
2017-12-10T08:43:06.891Z,73.37
2017-12-10T08:44:06.891Z,73.65
2017-12-10T08:45:06.917Z,73.37
2017-12-10T08:46:06.908Z,72.99
2017-12-10T08:47:06.921Z,72.71
2017-12-10T08:48:06.931Z,73.18
2017-12-10T08:49:06.939Z,72.99
2017-12-10T08:50:06.700Z,72.99
2017-12-10T08:51:06.957Z,72.8
2017-12-10T08:52:06.971Z,72.61
2017-12-10T08:53:06.976Z,73.37
2017-12-10T08:54:06.935Z,72.52
2017-12-10T08:55:07.003Z,73.08
2017-12-10T08:56:07.011Z,72.99
2017-12-10T08:57:06.754Z,73.18
2017-12-10T08:58:07.026Z,72.71
2017-12-10T08:59:07.034Z,73.46
2017-12-10T09:00:07.071Z,73.37
2017-12-10T09:01:06.804Z,72.99
2017-12-10T09:02:07.070Z,73.08
2017-12-10T09:03:06.809Z,72.8
2017-12-10T09:04:07.086Z,72.52
2017-12-10T09:05:06.830Z,72.8
2017-12-10T09:06:07.110Z,72.71
2017-12-10T09:07:07.115Z,72.71
2017-12-10T09:08:07.130Z,72.71
2017-12-10T09:09:07.141Z,72.71
2017-12-10T09:10:07.148Z,72.52
2017-12-10T09:11:07.155Z,73.18
2017-12-10T09:12:07.168Z,72.71
2017-12-10T09:13:07.182Z,72.89
2017-12-10T09:14:07.185Z,72.52
2017-12-10T09:15:06.931Z,72.71
2017-12-10T09:16:07.208Z,73.37
2017-12-10T09:17:07.216Z,72.33
2017-12-10T09:18:07.227Z,72.42
2017-12-10T09:19:07.236Z,72.04
2017-12-10T09:20:07.250Z,72.33
2017-12-10T09:21:07.267Z,72.42
2017-12-10T09:22:07.276Z,71.76
2017-12-10T09:23:07.293Z,71.76
2017-12-10T09:24:07.285Z,71.57
2017-12-10T09:25:07.297Z,71.85
2017-12-10T09:26:07.305Z,71.09
2017-12-10T09:27:07.316Z,71.47
2017-12-10T09:28:07.323Z,71
2017-12-10T09:29:07.345Z,71.28
2017-12-10T09:30:07.351Z,71.57
2017-12-10T09:31:07.364Z,71.57
2017-12-10T09:32:07.366Z,71.28
2017-12-10T09:33:07.380Z,71.19
2017-12-10T09:34:07.391Z,71.28
2017-12-10T09:35:07.399Z,71.47
2017-12-10T09:36:07.145Z,71.09
2017-12-10T09:37:07.153Z,70.53
2017-12-10T09:38:07.434Z,70.43
2017-12-10T09:39:07.540Z,70.53
2017-12-10T09:40:07.588Z,70.53
2017-12-10T09:41:07.350Z,70.9
2017-12-10T09:42:07.472Z,71.38
2017-12-10T09:43:07.482Z,71.19
2017-12-10T09:44:07.225Z,72.14
2017-12-10T09:45:07.499Z,71.95
2017-12-10T09:46:07.508Z,72.04
2017-12-10T09:47:07.255Z,72.17
2017-12-10T09:48:07.265Z,71.19
2017-12-10T09:49:07.545Z,71.19
2017-12-10T09:50:07.553Z,71.03
2017-12-10T09:51:07.561Z,71.47
2017-12-10T09:52:07.575Z,71.8
2017-12-10T09:53:07.587Z,71.85
2017-12-10T09:54:07.596Z,72.08
2017-12-10T09:55:07.600Z,71.47
2017-12-10T09:56:07.609Z,71.95
2017-12-10T09:57:07.623Z,71.51
2017-12-10T09:58:07.369Z,71.98
2017-12-10T09:59:07.655Z,71.41
2017-12-10T10:00:07.652Z,71.32
2017-12-10T10:01:07.662Z,71.6
2017-12-10T10:02:07.412Z,71.51
2017-12-10T10:03:07.420Z,72.17
2017-12-10T10:04:07.695Z,71.98
2017-12-10T10:05:07.444Z,72.17
2017-12-10T10:06:07.729Z,71.8
2017-12-10T10:07:07.724Z,71.98
2017-12-10T10:08:07.467Z,71.8
2017-12-10T10:09:07.480Z,71.7
2017-12-10T10:10:07.492Z,71.22
2017-12-10T10:11:07.500Z,71.41
2017-12-10T10:12:07.512Z,71.22
2017-12-10T10:13:07.798Z,71.22
2017-12-10T10:14:07.804Z,71.03
2017-12-10T10:15:07.812Z,70.56
2017-12-10T10:16:07.819Z,70.84
2017-12-10T10:17:07.827Z,70.47
2017-12-10T10:18:07.843Z,70.75
2017-12-10T10:19:07.582Z,70.28
2017-12-10T10:20:07.591Z,70.28
2017-12-10T10:21:07.871Z,70.56
2017-12-10T10:22:07.614Z,71.03
2017-12-10T10:23:07.891Z,70.94
2017-12-10T10:24:07.900Z,70.84
2017-12-10T10:25:07.906Z,70.94
2017-12-10T10:26:07.654Z,70.94
2017-12-10T10:27:07.931Z,71.03
2017-12-10T10:28:07.948Z,70.94
2017-12-10T10:29:07.689Z,71.32
2017-12-10T10:30:07.960Z,71.13
2017-12-10T10:31:07.710Z,71.41
2017-12-10T10:32:07.988Z,71.22
2017-12-10T10:33:07.998Z,71.98
2017-12-10T10:34:07.736Z,71.89
2017-12-10T10:35:08.019Z,71.03
2017-12-10T10:36:08.031Z,71.22
2017-12-10T10:37:08.033Z,70.56
2017-12-10T10:38:07.779Z,70.94
2017-12-10T10:39:07.789Z,70.84
2017-12-10T10:40:07.803Z,70.94
2017-12-10T10:41:08.075Z,70.56
2017-12-10T10:42:08.089Z,70.84
2017-12-10T10:43:08.093Z,70.75
2017-12-10T10:44:08.107Z,70.84
2017-12-10T10:45:08.116Z,70.94
2017-12-10T10:46:07.862Z,70.47
2017-12-10T10:47:07.870Z,70.09
2017-12-10T10:48:07.886Z,70.47
2017-12-10T10:49:08.163Z,70.47
2017-12-10T10:50:07.903Z,70.75
2017-12-10T10:51:08.190Z,70.47
2017-12-10T10:52:08.195Z,70.47
2017-12-10T10:53:08.200Z,70.47
2017-12-10T10:54:08.223Z,70.28
2017-12-10T10:55:08.224Z,69.04
2017-12-10T10:56:07.966Z,69.23
2017-12-10T10:57:08.242Z,69.33
2017-12-10T10:58:08.259Z,69.42
2017-12-10T10:59:08.266Z,70.18
2017-12-10T11:00:08.016Z,70.09
2017-12-10T11:01:08.296Z,69.42
2017-12-10T11:02:08.299Z,69.9
2017-12-10T11:03:08.040Z,69.42
2017-12-10T11:04:08.315Z,69.13
2017-12-10T11:05:08.330Z,69.33
2017-12-10T11:06:08.072Z,69.33
2017-12-10T11:07:08.351Z,70.18
2017-12-10T11:08:08.357Z,70.18
2017-12-10T11:09:08.100Z,68.95
2017-12-10T11:10:08.381Z,68.95
2017-12-10T11:11:08.389Z,68.95
2017-12-10T11:12:08.404Z,69.33
2017-12-10T11:13:08.410Z,69.99
2017-12-10T11:14:08.158Z,70.09
2017-12-10T11:15:08.436Z,69.61
2017-12-10T11:16:08.178Z,69.33
2017-12-10T11:17:08.451Z,69.52
2017-12-10T11:18:08.201Z,68.85
2017-12-10T11:19:08.475Z,69.04
2017-12-10T11:20:08.487Z,68.95
2017-12-10T11:21:08.503Z,69.23
2017-12-10T11:22:08.243Z,68.76
2017-12-10T11:23:08.514Z,68.66
2017-12-10T11:24:08.539Z,68.1
2017-12-10T11:25:08.537Z,68.48
2017-12-10T11:26:08.561Z,68
2017-12-10T11:27:08.559Z,68.1
2017-12-10T11:28:08.575Z,68.85
2017-12-10T11:29:08.319Z,68.85
2017-12-10T11:30:08.592Z,68.95
2017-12-10T11:31:08.605Z,69.42
2017-12-10T11:32:08.621Z,69.33
2017-12-10T11:33:08.625Z,69.23
2017-12-10T11:34:08.371Z,69.27
2017-12-10T11:35:08.642Z,69.52
2017-12-10T11:36:08.655Z,69.8
2017-12-10T11:37:08.407Z,70.03
2017-12-10T11:38:08.682Z,70.31
2017-12-10T11:39:08.689Z,70.12
2017-12-10T11:40:08.698Z,69.71
2017-12-10T11:41:08.711Z,69.93
2017-12-10T11:42:08.722Z,69.17
2017-12-10T11:43:08.737Z,69.27
2017-12-10T11:44:08.483Z,68.98
2017-12-10T11:45:08.519Z,68.89
2017-12-10T11:46:08.768Z,68.98
2017-12-10T11:47:08.776Z,68.41
2017-12-10T11:48:08.785Z,68.23
2017-12-10T11:49:08.798Z,68.41
2017-12-10T11:50:08.817Z,68.41
2017-12-10T11:51:08.839Z,68.13
2017-12-10T11:52:08.837Z,68.32
2017-12-10T11:53:08.571Z,68.51
2017-12-10T11:54:08.856Z,68.32
2017-12-10T11:55:08.860Z,68.41
2017-12-10T11:56:08.605Z,68.04
2017-12-10T11:57:08.620Z,67.18
2017-12-10T11:58:08.894Z,66.99
2017-12-10T11:59:08.904Z,66.39
2017-12-10T12:00:08.653Z,66.58
2017-12-10T12:01:08.923Z,67.37
2017-12-10T12:02:08.933Z,67.18
2017-12-10T12:03:08.954Z,66.96
2017-12-10T12:04:08.694Z,66.96
2017-12-10T12:05:08.968Z,66.89
2017-12-10T12:06:08.981Z,66.89
2017-12-10T12:07:08.992Z,67.43
2017-12-10T12:08:09.000Z,67.24
2017-12-10T12:09:09.011Z,67.52
2017-12-10T12:10:08.762Z,68.1
2017-12-10T12:11:09.037Z,68.29
2017-12-10T12:12:09.064Z,68
2017-12-10T12:13:09.063Z,67.65
2017-12-10T12:14:09.067Z,68.1
2017-12-10T12:15:09.079Z,67.52
2017-12-10T12:16:08.823Z,67.33
2017-12-10T12:17:09.097Z,67.52
2017-12-10T12:18:09.115Z,67.46
2017-12-10T12:19:09.122Z,67.33
2017-12-10T12:20:09.129Z,67.33
2017-12-10T12:21:09.144Z,67.52
2017-12-10T12:22:09.154Z,66.77
2017-12-10T12:23:08.899Z,67.33
2017-12-10T12:24:09.176Z,67.14
2017-12-10T12:25:09.183Z,67.24
2017-12-10T12:26:09.260Z,67.33
2017-12-10T12:27:09.213Z,67.33
2017-12-10T12:28:09.216Z,67.27
2017-12-10T12:29:09.230Z,67.27
2017-12-10T12:30:09.243Z,67.24
2017-12-10T12:31:09.303Z,67.43
2017-12-10T12:32:09.200Z,67.52
2017-12-10T12:33:09.275Z,66.86
2017-12-10T12:34:09.035Z,67.52
2017-12-10T12:35:09.034Z,67.24
2017-12-10T12:36:09.310Z,67.24
2017-12-10T12:37:09.316Z,68
2017-12-10T12:38:09.326Z,68
2017-12-10T12:39:09.070Z,67.52
2017-12-10T12:40:09.351Z,67.62
2017-12-10T12:41:09.360Z,67.52
2017-12-10T12:42:09.367Z,67.33
2017-12-10T12:43:09.116Z,67.14
2017-12-10T12:44:09.398Z,67.33
2017-12-10T12:45:09.403Z,68.1
2017-12-10T12:46:09.411Z,67.81
2017-12-10T12:47:09.426Z,67.43
2017-12-10T12:48:09.431Z,67.52
2017-12-10T12:49:09.454Z,67.71
2017-12-10T12:50:09.457Z,67.43
2017-12-10T12:51:09.203Z,67.43
2017-12-10T12:52:09.480Z,67.33
2017-12-10T12:53:09.491Z,67.33
2017-12-10T12:54:09.234Z,67.43
2017-12-10T12:55:09.514Z,67.62
2017-12-10T12:56:09.522Z,68